Архив погоды на Айон Острове

Метеограмма Айон Остров
Четверг, 21 Июня
Время местн. Темп Ветер Видим Явления Облачность нижн/средн/верх Атм. давл. Влжн Точка росы ВНГО R Сост. почвы Tg s
Напр Скр Прв ур.ст ур.м изм
12:00 +5.1° В,С-В 5 8 20 км - переменная облачность 761 762 -0.5 55% -3.2° 300 м - - - -
09:00 +3° В,С-В 5 7 20 км - переменная облачность 762 763 -0.2 90% +1.5° 300 м 0 Влажная (без луж) -1° -
06:00 +0.2° В 5 6 20 км туман незначительная облачность 762 763 +0.1 92% -0.9° 300 м - - - -
03:00 -1.5° В 5 7 500 м туман неба не видно 762 763 -0.4 100% -1.5° - - - - -
00:00 -1° В 6 11 500 м туман неба не видно 762 764 -0.1 100% -1° - - - - -
Среда, 20 Июня
Время местн. Темп Ветер Видим Явления Облачность нижн/средн/верх Атм. давл. Влжн Точка росы ВНГО R Сост. почвы Tg s
Напр Скр Прв ур.ст ур.м изм
21:00 -0.4° В,С-В 7 11 500 м туман неба не видно 762 764 -0.1 100% -0.4° - 0 - - -
18:00 +0.8° В 7 12 20 км - облачно 762 764 -0.2 92% -0.3° 200 м - - - -
15:00 +2.6° В,С-В 7 11 20 км - преимущественно облачно 762 764 -0.2 91% +1.3° 200 м - - - -
12:00 +2.1° В,С-В 6 9 20 км - облачно 763 764 +0.3 92% +0.9° 200 м - - - -
09:00 -0.3° С-В 6 10 20 км - облачно 762 764 +0.2 94% -1.2° 200 м 0 Влажная (без луж) -1° -
06:00 -1.1° В,С-В 7 10 20 км - облачно 762 764 +0.3 94% -2° 300 м - - - -
03:00 -1.3° С-В 7 11 20 км - облачно 762 763 -0.2 94% -2.2° 300 м - - - -
00:00 -1.1° С-В 7 12 20 км - облачно 762 763 +0.3 94% -2° 300 м - - - -
Вторник, 19 Июня
Время местн. Темп Ветер Видим Явления Облачность нижн/средн/верх Атм. давл. Влжн Точка росы ВНГО R Сост. почвы Tg s
Напр Скр Прв ур.ст ур.м изм
21:00 -0.6° С-В 8 12 20 км - облачно 762 763 +0.4 94% -1.5° 300 м 0 - - -
18:00 +0.4° С-В 6 12 20 км - облачно 761 763 +0.2 92% -0.7° 300 м - - - -
15:00 +1° С-В 7 11 20 км - облачно 761 762 +0.5 93% 300 м - - - -
12:00 +0.6° С-В 7 10 20 км - облачно 761 762 +0.8 92% -0.5° 200 м - - - -
09:00 -0.5° С,С-В 7 11 20 км - облачно 760 761 +1.3 94% -1.4° 200 м 0 Влажная (без луж) +1° -
06:00 +0.5° С,С-В 7 10 20 км - переменная облачность 759 760 +0.6 90% -0.9° более 2.5 км - - - -
03:00 -0.4° С 4 6 20 км - переменная облачность 758 759 +0.4 92% -1.6° 300 м - - - -
00:00 -0.2° С 4 9 20 км - облачно 758 759 +0.3 90% -1.7° 300 м - - - -
Понедельник, 18 Июня
Время местн. Темп Ветер Видим Явления Облачность нижн/средн/верх Атм. давл. Влжн Точка росы ВНГО R Сост. почвы Tg s
Напр Скр Прв ур.ст ур.м изм
21:00 +0.2° С 4 8 20 км - облачно 757 759 +0.7 92% -0.9° 300 м 0 - - -
18:00 -0.1° С,С-В 5 9 4 км дымка облачно 757 758 +0.6 98% -0.4° 200 м - - - -
15:00 +0.4° С,С-В 6 10 4 км дымка облачно 756 757 +0.3 96% -0.1° 200 м - - - -
12:00 +1.2° С-В 7 11 20 км небо без изменений {туман} облачно 756 757 +0.5 91% -0.1° 200 м - - - -
09:00 С-В 6 9 10 км небо без изменений {туман} облачно 755 757 0 92% -1.2° 200 м 0 Влажная (без луж) -1° -